sensor_id;sensor_type;location;lat;lon;timestamp;temperature;humidity
68026;SHT31;54819;48.030;14.710;2023-03-01T00:00:09;-0.84;76.93
68026;SHT31;54819;48.030;14.710;2023-03-01T00:02:37;-0.90;77.49
68026;SHT31;54819;48.030;14.710;2023-03-01T00:05:04;-0.95;77.20
68026;SHT31;54819;48.030;14.710;2023-03-01T00:07:32;-1.00;77.28
68026;SHT31;54819;48.030;14.710;2023-03-01T00:09:59;-1.00;77.29
68026;SHT31;54819;48.030;14.710;2023-03-01T00:12:26;-0.95;77.09
68026;SHT31;54819;48.030;14.710;2023-03-01T00:14:54;-0.89;76.93
68026;SHT31;54819;48.030;14.710;2023-03-01T00:17:21;-0.86;76.78
68026;SHT31;54819;48.030;14.710;2023-03-01T00:19:48;-0.76;76.36
68026;SHT31;54819;48.030;14.710;2023-03-01T00:22:16;-0.66;75.90
68026;SHT31;54819;48.030;14.710;2023-03-01T00:24:45;-0.58;75.50
68026;SHT31;54819;48.030;14.710;2023-03-01T00:27:12;-0.56;75.27
68026;SHT31;54819;48.030;14.710;2023-03-01T00:29:40;-0.58;75.32
68026;SHT31;54819;48.030;14.710;2023-03-01T00:32:07;-0.60;75.31
68026;SHT31;54819;48.030;14.710;2023-03-01T00:34:36;-0.62;75.30
68026;SHT31;54819;48.030;14.710;2023-03-01T00:37:04;-0.61;75.16
68026;SHT31;54819;48.030;14.710;2023-03-01T00:39:34;-0.65;75.26
68026;SHT31;54819;48.030;14.710;2023-03-01T00:42:01;-0.65;75.13
68026;SHT31;54819;48.030;14.710;2023-03-01T00:44:28;-0.65;75.20
68026;SHT31;54819;48.030;14.710;2023-03-01T00:46:57;-0.63;75.06
68026;SHT31;54819;48.030;14.710;2023-03-01T00:49:24;-0.63;74.94
68026;SHT31;54819;48.030;14.710;2023-03-01T00:51:55;-0.59;74.68
68026;SHT31;54819;48.030;14.710;2023-03-01T00:54:22;-0.60;74.71
68026;SHT31;54819;48.030;14.710;2023-03-01T00:56:49;-0.60;74.47
68026;SHT31;54819;48.030;14.710;2023-03-01T00:59:16;-0.62;74.47
68026;SHT31;54819;48.030;14.710;2023-03-01T01:01:44;-0.67;74.46
68026;SHT31;54819;48.030;14.710;2023-03-01T01:04:11;-0.70;74.51
68026;SHT31;54819;48.030;14.710;2023-03-01T01:06:41;-0.74;74.66
68026;SHT31;54819;48.030;14.710;2023-03-01T01:09:10;-0.77;74.69
68026;SHT31;54819;48.030;14.710;2023-03-01T01:11:49;-0.81;74.88
68026;SHT31;54819;48.030;14.710;2023-03-01T01:14:18;-0.83;74.98
68026;SHT31;54819;48.030;14.710;2023-03-01T01:16:47;-0.86;75.15
68026;SHT31;54819;48.030;14.710;2023-03-01T01:19:14;-0.85;75.15
68026;SHT31;54819;48.030;14.710;2023-03-01T01:21:41;-0.87;75.31
68026;SHT31;54819;48.030;14.710;2023-03-01T01:24:09;-0.84;75.25
68026;SHT31;54819;48.030;14.710;2023-03-01T01:26:37;-0.85;75.28
68026;SHT31;54819;48.030;14.710;2023-03-01T01:29:04;-0.84;75.30
68026;SHT31;54819;48.030;14.710;2023-03-01T01:31:35;-0.86;75.48
68026;SHT31;54819;48.030;14.710;2023-03-01T01:34:05;-0.88;75.37
68026;SHT31;54819;48.030;14.710;2023-03-01T01:36:34;-0.89;75.26
68026;SHT31;54819;48.030;14.710;2023-03-01T01:39:01;-0.91;75.11
68026;SHT31;54819;48.030;14.710;2023-03-01T01:41:28;-0.94;75.08
68026;SHT31;54819;48.030;14.710;2023-03-01T01:44:16;-0.98;75.16
68026;SHT31;54819;48.030;14.710;2023-03-01T01:51:51;-1.16;75.83
68026;SHT31;54819;48.030;14.710;2023-03-01T01:54:34;-1.22;75.90
68026;SHT31;54819;48.030;14.710;2023-03-01T01:57:03;-1.30;75.79
68026;SHT31;54819;48.030;14.710;2023-03-01T01:59:33;-1.37;75.83
68026;SHT31;54819;48.030;14.710;2023-03-01T02:02:02;-1.43;75.96
68026;SHT31;54819;48.030;14.710;2023-03-01T02:04:31;-1.49;76.07
68026;SHT31;54819;48.030;14.710;2023-03-01T02:07:19;-1.56;76.28
68026;SHT31;54819;48.030;14.710;2023-03-01T02:09:50;-1.63;76.42
68026;SHT31;54819;48.030;14.710;2023-03-01T02:12:20;-1.70;76.32
68026;SHT31;54819;48.030;14.710;2023-03-01T02:14:50;-1.75;76.81
68026;SHT31;54819;48.030;14.710;2023-03-01T02:17:17;-1.79;77.71
68026;SHT31;54819;48.030;14.710;2023-03-01T02:22:34;-1.85;77.14
68026;SHT31;54819;48.030;14.710;2023-03-01T02:30:21;-1.96;77.50
68026;SHT31;54819;48.030;14.710;2023-03-01T02:32:49;-2.01;77.40
68026;SHT31;54819;48.030;14.710;2023-03-01T02:35:21;-2.06;77.66
68026;SHT31;54819;48.030;14.710;2023-03-01T02:37:49;-2.11;78.48
68026;SHT31;54819;48.030;14.710;2023-03-01T02:40:17;-2.16;78.79
68026;SHT31;54819;48.030;14.710;2023-03-01T02:42:54;-2.20;78.46
68026;SHT31;54819;48.030;14.710;2023-03-01T02:45:25;-2.24;78.33
68026;SHT31;54819;48.030;14.710;2023-03-01T02:47:56;-2.28;78.28
68026;SHT31;54819;48.030;14.710;2023-03-01T02:55:42;-2.41;78.71
68026;SHT31;54819;48.030;14.710;2023-03-01T02:58:10;-2.42;79.01
68026;SHT31;54819;48.030;14.710;2023-03-01T03:00:41;-2.41;78.50
68026;SHT31;54819;48.030;14.710;2023-03-01T03:03:15;-2.37;78.06
68026;SHT31;54819;48.030;14.710;2023-03-01T03:05:46;-2.35;78.55
68026;SHT31;54819;48.030;14.710;2023-03-01T03:08:14;-2.35;78.90
68026;SHT31;54819;48.030;14.710;2023-03-01T03:10:51;-2.37;79.25
68026;SHT31;54819;48.030;14.710;2023-03-01T03:13:18;-2.38;79.20
68026;SHT31;54819;48.030;14.710;2023-03-01T03:15:46;-2.38;79.03
68026;SHT31;54819;48.030;14.710;2023-03-01T03:18:16;-2.38;78.81
68026;SHT31;54819;48.030;14.710;2023-03-01T03:20:44;-2.39;79.15
68026;SHT31;54819;48.030;14.710;2023-03-01T03:23:12;-2.41;78.99
68026;SHT31;54819;48.030;14.710;2023-03-01T03:25:43;-2.39;79.37
68026;SHT31;54819;48.030;14.710;2023-03-01T03:28:10;-2.33;79.56
68026;SHT31;54819;48.030;14.710;2023-03-01T03:30:38;-2.24;79.87
68026;SHT31;54819;48.030;14.710;2023-03-01T03:33:07;-2.13;79.89
68026;SHT31;54819;48.030;14.710;2023-03-01T03:35:40;-2.03;79.55
68026;SHT31;54819;48.030;14.710;2023-03-01T03:38:14;-1.92;79.51
68026;SHT31;54819;48.030;14.710;2023-03-01T03:40:45;-1.82;79.10
68026;SHT31;54819;48.030;14.710;2023-03-01T03:43:15;-1.73;78.68
68026;SHT31;54819;48.030;14.710;2023-03-01T03:45:47;-1.67;78.34
68026;SHT31;54819;48.030;14.710;2023-03-01T03:48:18;-1.66;78.36
68026;SHT31;54819;48.030;14.710;2023-03-01T03:50:49;-1.67;78.42
68026;SHT31;54819;48.030;14.710;2023-03-01T03:53:21;-1.70;78.49
68026;SHT31;54819;48.030;14.710;2023-03-01T03:55:52;-1.69;78.56
68026;SHT31;54819;48.030;14.710;2023-03-01T03:58:22;-1.71;78.63
68026;SHT31;54819;48.030;14.710;2023-03-01T04:00:52;-1.69;78.42
68026;SHT31;54819;48.030;14.710;2023-03-01T04:03:22;-1.63;78.19
68026;SHT31;54819;48.030;14.710;2023-03-01T04:05:51;-1.58;78.02
68026;SHT31;54819;48.030;14.710;2023-03-01T04:08:20;-1.55;77.82
68026;SHT31;54819;48.030;14.710;2023-03-01T04:10:49;-1.57;77.93
68026;SHT31;54819;48.030;14.710;2023-03-01T04:13:21;-1.55;77.76
68026;SHT31;54819;48.030;14.710;2023-03-01T04:15:49;-1.58;77.84
68026;SHT31;54819;48.030;14.710;2023-03-01T04:18:22;-1.59;77.93
68026;SHT31;54819;48.030;14.710;2023-03-01T04:20:52;-1.58;77.84
68026;SHT31;54819;48.030;14.710;2023-03-01T04:23:22;-1.55;77.77
68026;SHT31;54819;48.030;14.710;2023-03-01T04:25:57;-1.52;77.71
68026;SHT31;54819;48.030;14.710;2023-03-01T04:30:53;-1.53;77.86
68026;SHT31;54819;48.030;14.710;2023-03-01T04:33:22;-1.51;77.67
68026;SHT31;54819;48.030;14.710;2023-03-01T04:35:50;-1.52;77.72
68026;SHT31;54819;48.030;14.710;2023-03-01T04:38:18;-1.55;77.76
68026;SHT31;54819;48.030;14.710;2023-03-01T04:40:45;-1.57;77.93
68026;SHT31;54819;48.030;14.710;2023-03-01T04:43:12;-1.57;78.09
68026;SHT31;54819;48.030;14.710;2023-03-01T04:45:41;-1.50;77.82
68026;SHT31;54819;48.030;14.710;2023-03-01T04:48:08;-1.49;77.74
68026;SHT31;54819;48.030;14.710;2023-03-01T04:50:35;-1.49;77.75
68026;SHT31;54819;48.030;14.710;2023-03-01T04:53:02;-1.49;77.74
68026;SHT31;54819;48.030;14.710;2023-03-01T04:55:29;-1.54;77.88
68026;SHT31;54819;48.030;14.710;2023-03-01T04:57:56;-1.60;78.00
68026;SHT31;54819;48.030;14.710;2023-03-01T05:00:23;-1.66;78.22
68026;SHT31;54819;48.030;14.710;2023-03-01T05:02:54;-1.72;78.51
68026;SHT31;54819;48.030;14.710;2023-03-01T05:05:26;-1.78;78.57
68026;SHT31;54819;48.030;14.710;2023-03-01T05:08:02;-1.84;78.94
68026;SHT31;54819;48.030;14.710;2023-03-01T05:10:32;-1.88;79.24
68026;SHT31;54819;48.030;14.710;2023-03-01T05:13:02;-1.92;79.14
68026;SHT31;54819;48.030;14.710;2023-03-01T05:15:30;-1.98;79.06
68026;SHT31;54819;48.030;14.710;2023-03-01T05:17:58;-2.04;79.06
68026;SHT31;54819;48.030;14.710;2023-03-01T05:20:27;-2.08;79.05
68026;SHT31;54819;48.030;14.710;2023-03-01T05:22:56;-2.13;79.52
68026;SHT31;54819;48.030;14.710;2023-03-01T05:25:26;-2.18;79.60
68026;SHT31;54819;48.030;14.710;2023-03-01T05:27:53;-2.20;79.48
68026;SHT31;54819;48.030;14.710;2023-03-01T05:30:20;-2.21;79.26
68026;SHT31;54819;48.030;14.710;2023-03-01T05:32:49;-2.23;79.54
68026;SHT31;54819;48.030;14.710;2023-03-01T05:35:22;-2.24;79.24
68026;SHT31;54819;48.030;14.710;2023-03-01T05:37:50;-2.26;79.18
68026;SHT31;54819;48.030;14.710;2023-03-01T05:40:18;-2.27;79.45
68026;SHT31;54819;48.030;14.710;2023-03-01T05:42:54;-2.27;79.68
68026;SHT31;54819;48.030;14.710;2023-03-01T05:45:23;-2.27;79.58
68026;SHT31;54819;48.030;14.710;2023-03-01T05:47:52;-2.27;79.67
68026;SHT31;54819;48.030;14.710;2023-03-01T05:50:25;-2.20;79.80
68026;SHT31;54819;48.030;14.710;2023-03-01T05:53:01;-2.05;79.65
68026;SHT31;54819;48.030;14.710;2023-03-01T05:55:34;-1.92;79.25
68026;SHT31;54819;48.030;14.710;2023-03-01T05:58:03;-1.82;78.97
68026;SHT31;54819;48.030;14.710;2023-03-01T06:00:33;-1.75;78.72
68026;SHT31;54819;48.030;14.710;2023-03-01T06:03:01;-1.68;78.38
68026;SHT31;54819;48.030;14.710;2023-03-01T06:05:28;-1.62;78.15
68026;SHT31;54819;48.030;14.710;2023-03-01T06:07:58;-1.58;77.95
68026;SHT31;54819;48.030;14.710;2023-03-01T06:10:26;-1.58;77.95
68026;SHT31;54819;48.030;14.710;2023-03-01T06:12:53;-1.58;78.18
68026;SHT31;54819;48.030;14.710;2023-03-01T06:15:20;-1.57;78.12
68026;SHT31;54819;48.030;14.710;2023-03-01T06:17:48;-1.57;78.12
68026;SHT31;54819;48.030;14.710;2023-03-01T06:20:17;-1.56;78.28
68026;SHT31;54819;48.030;14.710;2023-03-01T06:22:47;-1.50;78.12
68026;SHT31;54819;48.030;14.710;2023-03-01T06:25:18;-1.45;78.07
68026;SHT31;54819;48.030;14.710;2023-03-01T06:27:48;-1.39;77.96
68026;SHT31;54819;48.030;14.710;2023-03-01T06:30:16;-1.34;77.77
68026;SHT31;54819;48.030;14.710;2023-03-01T06:32:44;-1.29;77.65
68026;SHT31;54819;48.030;14.710;2023-03-01T06:35:12;-1.24;77.44
68026;SHT31;54819;48.030;14.710;2023-03-01T06:37:43;-1.21;77.45
68026;SHT31;54819;48.030;14.710;2023-03-01T06:40:12;-1.17;77.25
68026;SHT31;54819;48.030;14.710;2023-03-01T06:42:41;-1.14;77.02
68026;SHT31;54819;48.030;14.710;2023-03-01T06:45:09;-1.14;77.06
68026;SHT31;54819;48.030;14.710;2023-03-01T06:47:37;-1.10;76.97
68026;SHT31;54819;48.030;14.710;2023-03-01T06:50:04;-1.07;76.98
68026;SHT31;54819;48.030;14.710;2023-03-01T06:52:32;-1.03;76.94
68026;SHT31;54819;48.030;14.710;2023-03-01T06:54:59;-1.00;76.87
68026;SHT31;54819;48.030;14.710;2023-03-01T06:57:26;-0.93;76.76
68026;SHT31;54819;48.030;14.710;2023-03-01T06:59:54;-0.87;76.44
68026;SHT31;54819;48.030;14.710;2023-03-01T07:02:21;-0.85;76.16
68026;SHT31;54819;48.030;14.710;2023-03-01T07:04:49;-0.83;76.15
68026;SHT31;54819;48.030;14.710;2023-03-01T07:07:17;-0.79;76.11
68026;SHT31;54819;48.030;14.710;2023-03-01T07:09:45;-0.74;75.97
68026;SHT31;54819;48.030;14.710;2023-03-01T07:12:12;-0.68;76.03
68026;SHT31;54819;48.030;14.710;2023-03-01T07:14:39;-0.62;75.90
68026;SHT31;54819;48.030;14.710;2023-03-01T07:17:06;-0.57;75.59
68026;SHT31;54819;48.030;14.710;2023-03-01T07:19:34;-0.54;75.43
68026;SHT31;54819;48.030;14.710;2023-03-01T07:22:02;-0.53;75.37
68026;SHT31;54819;48.030;14.710;2023-03-01T07:24:30;-0.48;75.46
68026;SHT31;54819;48.030;14.710;2023-03-01T07:26:58;-0.42;75.40
68026;SHT31;54819;48.030;14.710;2023-03-01T07:29:25;-0.33;75.35
68026;SHT31;54819;48.030;14.710;2023-03-01T07:31:52;-0.26;75.32
68026;SHT31;54819;48.030;14.710;2023-03-01T07:34:20;-0.17;75.26
68026;SHT31;54819;48.030;14.710;2023-03-01T07:36:49;-0.07;74.87
68026;SHT31;54819;48.030;14.710;2023-03-01T07:39:22;-0.00;74.62
68026;SHT31;54819;48.030;14.710;2023-03-01T07:41:52;0.08;74.48
68026;SHT31;54819;48.030;14.710;2023-03-01T07:44:23;0.15;74.16
68026;SHT31;54819;48.030;14.710;2023-03-01T07:46:51;0.21;74.22
68026;SHT31;54819;48.030;14.710;2023-03-01T07:49:26;0.30;74.18
68026;SHT31;54819;48.030;14.710;2023-03-01T07:51:53;0.35;73.64
68026;SHT31;54819;48.030;14.710;2023-03-01T07:54:21;0.38;73.81
68026;SHT31;54819;48.030;14.710;2023-03-01T07:56:48;0.43;73.61
68026;SHT31;54819;48.030;14.710;2023-03-01T07:59:15;0.46;73.37
68026;SHT31;54819;48.030;14.710;2023-03-01T08:01:42;0.51;73.47
68026;SHT31;54819;48.030;14.710;2023-03-01T08:04:10;0.57;73.52
68026;SHT31;54819;48.030;14.710;2023-03-01T08:06:37;0.62;73.21
68026;SHT31;54819;48.030;14.710;2023-03-01T08:09:06;0.68;73.13
68026;SHT31;54819;48.030;14.710;2023-03-01T08:11:37;0.80;72.83
68026;SHT31;54819;48.030;14.710;2023-03-01T08:14:05;0.86;72.82
68026;SHT31;54819;48.030;14.710;2023-03-01T08:16:33;0.90;72.73
68026;SHT31;54819;48.030;14.710;2023-03-01T08:19:09;0.98;72.41
68026;SHT31;54819;48.030;14.710;2023-03-01T08:21:40;1.01;72.09
68026;SHT31;54819;48.030;14.710;2023-03-01T08:24:12;1.12;72.40
68026;SHT31;54819;48.030;14.710;2023-03-01T08:26:40;1.23;71.84
68026;SHT31;54819;48.030;14.710;2023-03-01T08:29:12;1.32;71.39
68026;SHT31;54819;48.030;14.710;2023-03-01T08:31:40;1.37;71.13
68026;SHT31;54819;48.030;14.710;2023-03-01T08:34:09;1.44;71.09
68026;SHT31;54819;48.030;14.710;2023-03-01T08:36:39;1.54;70.31
68026;SHT31;54819;48.030;14.710;2023-03-01T08:39:09;1.51;69.98
68026;SHT31;54819;48.030;14.710;2023-03-01T08:41:39;1.54;69.90
68026;SHT31;54819;48.030;14.710;2023-03-01T08:44:07;1.51;70.05
68026;SHT31;54819;48.030;14.710;2023-03-01T08:46:35;1.46;69.93
68026;SHT31;54819;48.030;14.710;2023-03-01T08:49:04;1.49;70.24
68026;SHT31;54819;48.030;14.710;2023-03-01T08:51:39;1.52;69.92
68026;SHT31;54819;48.030;14.710;2023-03-01T08:54:09;1.55;69.97
68026;SHT31;54819;48.030;14.710;2023-03-01T08:56:41;1.61;70.04
68026;SHT31;54819;48.030;14.710;2023-03-01T08:59:10;1.68;69.78
68026;SHT31;54819;48.030;14.710;2023-03-01T09:01:38;1.77;69.73
68026;SHT31;54819;48.030;14.710;2023-03-01T09:04:10;1.86;69.50
68026;SHT31;54819;48.030;14.710;2023-03-01T09:06:38;1.93;69.52
68026;SHT31;54819;48.030;14.710;2023-03-01T09:09:06;2.03;69.45
68026;SHT31;54819;48.030;14.710;2023-03-01T09:11:41;2.08;68.97
68026;SHT31;54819;48.030;14.710;2023-03-01T09:14:13;2.13;68.94
68026;SHT31;54819;48.030;14.710;2023-03-01T09:16:41;2.21;68.94
68026;SHT31;54819;48.030;14.710;2023-03-01T09:19:09;2.32;69.08
68026;SHT31;54819;48.030;14.710;2023-03-01T09:21:37;2.41;68.93
68026;SHT31;54819;48.030;14.710;2023-03-01T09:24:12;2.50;68.60
68026;SHT31;54819;48.030;14.710;2023-03-01T09:26:47;2.54;68.50
68026;SHT31;54819;48.030;14.710;2023-03-01T09:29:17;2.57;68.36
68026;SHT31;54819;48.030;14.710;2023-03-01T09:31:44;2.62;68.23
68026;SHT31;54819;48.030;14.710;2023-03-01T09:34:11;2.69;68.31
68026;SHT31;54819;48.030;14.710;2023-03-01T09:36:40;2.74;68.23
68026;SHT31;54819;48.030;14.710;2023-03-01T09:39:07;2.84;68.05
68026;SHT31;54819;48.030;14.710;2023-03-01T09:41:45;2.88;67.89
68026;SHT31;54819;48.030;14.710;2023-03-01T09:44:19;2.95;67.93
68026;SHT31;54819;48.030;14.710;2023-03-01T09:46:55;3.06;67.89
68026;SHT31;54819;48.030;14.710;2023-03-01T09:49:31;3.15;67.76
68026;SHT31;54819;48.030;14.710;2023-03-01T09:54:58;3.35;67.12
68026;SHT31;54819;48.030;14.710;2023-03-01T09:57:31;3.42;67.07
68026;SHT31;54819;48.030;14.710;2023-03-01T10:00:14;3.46;66.92
68026;SHT31;54819;48.030;14.710;2023-03-01T10:02:47;3.56;66.89
68026;SHT31;54819;48.030;14.710;2023-03-01T10:10:36;3.75;66.27
68026;SHT31;54819;48.030;14.710;2023-03-01T10:13:17;3.75;66.08
68026;SHT31;54819;48.030;14.710;2023-03-01T10:15:50;3.81;66.57
68026;SHT31;54819;48.030;14.710;2023-03-01T10:18:28;3.94;66.73
68026;SHT31;54819;48.030;14.710;2023-03-01T10:21:08;4.03;66.30
68026;SHT31;54819;48.030;14.710;2023-03-01T10:23:46;4.09;66.22
68026;SHT31;54819;48.030;14.710;2023-03-01T10:29:12;4.19;65.66
68026;SHT31;54819;48.030;14.710;2023-03-01T10:31:47;4.25;65.82
68026;SHT31;54819;48.030;14.710;2023-03-01T10:34:20;4.32;65.48
68026;SHT31;54819;48.030;14.710;2023-03-01T10:37:08;4.42;65.54
68026;SHT31;54819;48.030;14.710;2023-03-01T10:39:53;4.53;65.64
68026;SHT31;54819;48.030;14.710;2023-03-01T10:42:46;4.60;65.56
68026;SHT31;54819;48.030;14.710;2023-03-01T10:53:37;4.99;65.47
68026;SHT31;54819;48.030;14.710;2023-03-01T10:56:13;5.08;65.31
68026;SHT31;54819;48.030;14.710;2023-03-01T10:58:58;5.12;64.82
68026;SHT31;54819;48.030;14.710;2023-03-01T11:01:30;5.15;64.83
68026;SHT31;54819;48.030;14.710;2023-03-01T11:06:35;5.25;64.37
68026;SHT31;54819;48.030;14.710;2023-03-01T11:11:42;5.28;64.33
68026;SHT31;54819;48.030;14.710;2023-03-01T11:14:14;5.32;64.51
68026;SHT31;54819;48.030;14.710;2023-03-01T11:17:00;5.41;64.83
68026;SHT31;54819;48.030;14.710;2023-03-01T11:19:30;5.51;64.59
68026;SHT31;54819;48.030;14.710;2023-03-01T11:27:15;5.66;63.76
68026;SHT31;54819;48.030;14.710;2023-03-01T11:29:56;5.68;64.01
68026;SHT31;54819;48.030;14.710;2023-03-01T11:32:25;5.70;64.06
68026;SHT31;54819;48.030;14.710;2023-03-01T11:44:14;5.97;64.27
68026;SHT31;54819;48.030;14.710;2023-03-01T11:50:00;6.08;64.18
68026;SHT31;54819;48.030;14.710;2023-03-01T11:58:26;6.28;64.15
68026;SHT31;54819;48.030;14.710;2023-03-01T12:01:22;6.32;63.39
68026;SHT31;54819;48.030;14.710;2023-03-01T12:16:23;6.61;63.43
68026;SHT31;54819;48.030;14.710;2023-03-01T12:19:29;6.62;62.77
68026;SHT31;54819;48.030;14.710;2023-03-01T12:25:04;6.59;63.36
68026;SHT31;54819;48.030;14.710;2023-03-01T12:30:49;6.75;63.47
68026;SHT31;54819;48.030;14.710;2023-03-01T12:36:10;6.80;62.66
68026;SHT31;54819;48.030;14.710;2023-03-01T12:41:51;6.86;63.09
68026;SHT31;54819;48.030;14.710;2023-03-01T12:44:35;6.89;62.40
68026;SHT31;54819;48.030;14.710;2023-03-01T12:50:14;6.84;62.30
68026;SHT31;54819;48.030;14.710;2023-03-01T12:52:47;6.85;62.27
68026;SHT31;54819;48.030;14.710;2023-03-01T12:55:26;6.82;62.33
68026;SHT31;54819;48.030;14.710;2023-03-01T13:00:45;6.78;62.56
68026;SHT31;54819;48.030;14.710;2023-03-01T13:09:21;6.83;62.33
68026;SHT31;54819;48.030;14.710;2023-03-01T13:12:41;6.77;62.25
68026;SHT31;54819;48.030;14.710;2023-03-01T13:15:45;6.73;61.91
68026;SHT31;54819;48.030;14.710;2023-03-01T13:31:01;6.74;62.48
68026;SHT31;54819;48.030;14.710;2023-03-01T13:35:57;6.89;62.88
68026;SHT31;54819;48.030;14.710;2023-03-01T13:46:56;6.96;62.19
68026;SHT31;54819;48.030;14.710;2023-03-01T13:49:27;6.99;62.88
68026;SHT31;54819;48.030;14.710;2023-03-01T13:52:57;7.03;62.35
68026;SHT31;54819;48.030;14.710;2023-03-01T13:57:48;7.00;62.24
68026;SHT31;54819;48.030;14.710;2023-03-01T14:05:58;6.99;62.80
68026;SHT31;54819;48.030;14.710;2023-03-01T14:08:41;7.05;63.08
68026;SHT31;54819;48.030;14.710;2023-03-01T14:19:34;7.13;62.59
68026;SHT31;54819;48.030;14.710;2023-03-01T14:22:22;7.13;62.47
68026;SHT31;54819;48.030;14.710;2023-03-01T14:25:00;7.11;62.37
68026;SHT31;54819;48.030;14.710;2023-03-01T14:27:54;7.09;62.58
68026;SHT31;54819;48.030;14.710;2023-03-01T14:30:24;7.10;62.56
68026;SHT31;54819;48.030;14.710;2023-03-01T14:32:58;7.08;62.42
68026;SHT31;54819;48.030;14.710;2023-03-01T14:35:35;7.08;62.34
68026;SHT31;54819;48.030;14.710;2023-03-01T14:38:06;7.06;62.29
68026;SHT31;54819;48.030;14.710;2023-03-01T14:40:46;7.01;62.17
68026;SHT31;54819;48.030;14.710;2023-03-01T14:43:22;6.97;62.56
68026;SHT31;54819;48.030;14.710;2023-03-01T14:45:52;6.97;62.36
68026;SHT31;54819;48.030;14.710;2023-03-01T14:48:20;6.95;62.84
68026;SHT31;54819;48.030;14.710;2023-03-01T14:50:49;6.99;62.69
68026;SHT31;54819;48.030;14.710;2023-03-01T14:53:18;7.00;62.79
68026;SHT31;54819;48.030;14.710;2023-03-01T14:55:50;6.99;62.58
68026;SHT31;54819;48.030;14.710;2023-03-01T14:58:23;7.00;62.71
68026;SHT31;54819;48.030;14.710;2023-03-01T15:00:55;6.98;62.87
68026;SHT31;54819;48.030;14.710;2023-03-01T15:03:33;6.99;62.59
68026;SHT31;54819;48.030;14.710;2023-03-01T15:06:09;7.00;62.84
68026;SHT31;54819;48.030;14.710;2023-03-01T15:08:41;6.98;62.64
68026;SHT31;54819;48.030;14.710;2023-03-01T15:11:25;6.94;62.39
68026;SHT31;54819;48.030;14.710;2023-03-01T15:13:56;6.89;62.60
68026;SHT31;54819;48.030;14.710;2023-03-01T15:16:24;6.90;62.99
68026;SHT31;54819;48.030;14.710;2023-03-01T15:19:01;6.87;62.83
68026;SHT31;54819;48.030;14.710;2023-03-01T15:21:32;6.83;63.22
68026;SHT31;54819;48.030;14.710;2023-03-01T15:24:07;6.77;63.15
68026;SHT31;54819;48.030;14.710;2023-03-01T15:29:26;6.60;63.23
68026;SHT31;54819;48.030;14.710;2023-03-01T15:32:20;6.55;63.37
68026;SHT31;54819;48.030;14.710;2023-03-01T15:34:52;6.46;63.77
68026;SHT31;54819;48.030;14.710;2023-03-01T15:40:02;6.39;64.21
68026;SHT31;54819;48.030;14.710;2023-03-01T15:47:50;6.24;64.20
68026;SHT31;54819;48.030;14.710;2023-03-01T15:50:22;6.18;64.40
68026;SHT31;54819;48.030;14.710;2023-03-01T15:52:52;6.13;64.73
68026;SHT31;54819;48.030;14.710;2023-03-01T15:55:24;6.07;64.82
68026;SHT31;54819;48.030;14.710;2023-03-01T15:58:00;6.05;64.87
68026;SHT31;54819;48.030;14.710;2023-03-01T16:00:30;6.01;65.00
68026;SHT31;54819;48.030;14.710;2023-03-01T16:03:00;5.98;64.94
68026;SHT31;54819;48.030;14.710;2023-03-01T16:05:29;5.94;65.12
68026;SHT31;54819;48.030;14.710;2023-03-01T16:07:58;5.91;65.27
68026;SHT31;54819;48.030;14.710;2023-03-01T16:10:25;5.84;65.50
68026;SHT31;54819;48.030;14.710;2023-03-01T16:12:53;5.78;65.70
68026;SHT31;54819;48.030;14.710;2023-03-01T16:15:25;5.78;65.53
68026;SHT31;54819;48.030;14.710;2023-03-01T16:17:56;5.76;65.58
68026;SHT31;54819;48.030;14.710;2023-03-01T16:20:27;5.67;66.01
68026;SHT31;54819;48.030;14.710;2023-03-01T16:23:02;5.64;66.09
68026;SHT31;54819;48.030;14.710;2023-03-01T16:25:31;5.57;66.35
68026;SHT31;54819;48.030;14.710;2023-03-01T16:27:59;5.53;66.38
68026;SHT31;54819;48.030;14.710;2023-03-01T16:30:30;5.45;66.73
68026;SHT31;54819;48.030;14.710;2023-03-01T16:33:01;5.36;67.04
68026;SHT31;54819;48.030;14.710;2023-03-01T16:35:31;5.34;67.03
68026;SHT31;54819;48.030;14.710;2023-03-01T16:37:59;5.34;67.01
68026;SHT31;54819;48.030;14.710;2023-03-01T16:40:27;5.27;67.31
68026;SHT31;54819;48.030;14.710;2023-03-01T16:43:01;5.27;67.31
68026;SHT31;54819;48.030;14.710;2023-03-01T16:45:32;5.26;67.18
68026;SHT31;54819;48.030;14.710;2023-03-01T16:48:02;5.24;67.16
68026;SHT31;54819;48.030;14.710;2023-03-01T16:50:30;5.15;67.55
68026;SHT31;54819;48.030;14.710;2023-03-01T16:52:57;5.07;67.85
68026;SHT31;54819;48.030;14.710;2023-03-01T16:55:24;5.00;68.06
68026;SHT31;54819;48.030;14.710;2023-03-01T16:57:54;4.92;68.36
68026;SHT31;54819;48.030;14.710;2023-03-01T17:00:21;4.88;68.45
68026;SHT31;54819;48.030;14.710;2023-03-01T17:02:53;4.80;68.62
68026;SHT31;54819;48.030;14.710;2023-03-01T17:05:21;4.74;68.78
68026;SHT31;54819;48.030;14.710;2023-03-01T17:07:53;4.68;69.23
68026;SHT31;54819;48.030;14.710;2023-03-01T17:10:22;4.63;69.39
68026;SHT31;54819;48.030;14.710;2023-03-01T17:12:55;4.62;69.31
68026;SHT31;54819;48.030;14.710;2023-03-01T17:15:23;4.60;69.43
68026;SHT31;54819;48.030;14.710;2023-03-01T17:17:51;4.58;69.65
68026;SHT31;54819;48.030;14.710;2023-03-01T17:20:18;4.60;69.55
68026;SHT31;54819;48.030;14.710;2023-03-01T17:22:46;4.55;69.77
68026;SHT31;54819;48.030;14.710;2023-03-01T17:25:16;4.54;69.66
68026;SHT31;54819;48.030;14.710;2023-03-01T17:27:44;4.48;69.94
68026;SHT31;54819;48.030;14.710;2023-03-01T17:30:12;4.46;69.93
68026;SHT31;54819;48.030;14.710;2023-03-01T17:32:41;4.45;69.94
68026;SHT31;54819;48.030;14.710;2023-03-01T17:35:09;4.41;70.10
68026;SHT31;54819;48.030;14.710;2023-03-01T17:37:38;4.36;70.23
68026;SHT31;54819;48.030;14.710;2023-03-01T17:40:12;4.30;70.41
68026;SHT31;54819;48.030;14.710;2023-03-01T17:42:39;4.26;70.71
68026;SHT31;54819;48.030;14.710;2023-03-01T17:45:06;4.26;70.68
68026;SHT31;54819;48.030;14.710;2023-03-01T17:47:34;4.24;70.94
68026;SHT31;54819;48.030;14.710;2023-03-01T17:50:02;4.22;70.94
68026;SHT31;54819;48.030;14.710;2023-03-01T17:52:31;4.22;70.90
68026;SHT31;54819;48.030;14.710;2023-03-01T17:54:59;4.22;70.91
68026;SHT31;54819;48.030;14.710;2023-03-01T17:57:27;4.18;71.03
68026;SHT31;54819;48.030;14.710;2023-03-01T17:59:56;4.13;71.12
68026;SHT31;54819;48.030;14.710;2023-03-01T18:02:24;4.09;71.33
68026;SHT31;54819;48.030;14.710;2023-03-01T18:04:58;4.04;71.44
68026;SHT31;54819;48.030;14.710;2023-03-01T18:07:27;3.97;71.64
68026;SHT31;54819;48.030;14.710;2023-03-01T18:09:55;3.94;71.74
68026;SHT31;54819;48.030;14.710;2023-03-01T18:12:23;3.87;72.08
68026;SHT31;54819;48.030;14.710;2023-03-01T18:14:51;3.84;72.18
68026;SHT31;54819;48.030;14.710;2023-03-01T18:17:23;3.82;72.28
68026;SHT31;54819;48.030;14.710;2023-03-01T18:19:54;3.79;72.43
68026;SHT31;54819;48.030;14.710;2023-03-01T18:22:24;3.81;72.39
68026;SHT31;54819;48.030;14.710;2023-03-01T18:24:56;3.81;72.43